sensor_id;sensor_type;location;lat;lon;timestamp;P1;durP1;ratioP1;P2;durP2;ratioP2
42886;SDS011;29032;56.028;92.904;2022-10-04T00:05:11;20.47;;;10.27;;
42886;SDS011;29032;56.028;92.904;2022-10-04T00:10:17;16.97;;;9.20;;
42886;SDS011;29032;56.028;92.904;2022-10-04T00:15:23;19.27;;;10.23;;
42886;SDS011;29032;56.028;92.904;2022-10-04T00:25:48;20.17;;;9.93;;
42886;SDS011;29032;56.028;92.904;2022-10-04T00:31:09;19.30;;;10.77;;
42886;SDS011;29032;56.028;92.904;2022-10-04T00:36:36;17.60;;;10.40;;
42886;SDS011;29032;56.028;92.904;2022-10-04T00:41:43;17.80;;;9.70;;
42886;SDS011;29032;56.028;92.904;2022-10-04T00:46:55;15.43;;;9.03;;
42886;SDS011;29032;56.028;92.904;2022-10-04T00:52:02;15.23;;;9.63;;
42886;SDS011;29032;56.028;92.904;2022-10-04T00:57:09;19.30;;;10.67;;
42886;SDS011;29032;56.028;92.904;2022-10-04T01:02:18;27.00;;;13.67;;
42886;SDS011;29032;56.028;92.904;2022-10-04T01:07:22;28.23;;;16.00;;
42886;SDS011;29032;56.028;92.904;2022-10-04T01:12:35;26.07;;;17.47;;
42886;SDS011;29032;56.028;92.904;2022-10-04T01:23:15;26.63;;;12.20;;
42886;SDS011;29032;56.028;92.904;2022-10-04T01:28:32;26.13;;;13.40;;
42886;SDS011;29032;56.028;92.904;2022-10-04T01:33:36;25.30;;;13.17;;
42886;SDS011;29032;56.028;92.904;2022-10-04T01:38:39;28.87;;;13.97;;
42886;SDS011;29032;56.028;92.904;2022-10-04T01:43:41;35.30;;;18.63;;
42886;SDS011;29032;56.028;92.904;2022-10-04T01:48:50;40.30;;;19.97;;
42886;SDS011;29032;56.028;92.904;2022-10-04T01:53:57;46.20;;;25.77;;
42886;SDS011;29032;56.028;92.904;2022-10-04T01:59:05;49.90;;;28.63;;
42886;SDS011;29032;56.028;92.904;2022-10-04T02:04:19;47.50;;;25.33;;
42886;SDS011;29032;56.028;92.904;2022-10-04T02:09:29;49.47;;;23.90;;
42886;SDS011;29032;56.028;92.904;2022-10-04T02:14:34;31.60;;;17.13;;
42886;SDS011;29032;56.028;92.904;2022-10-04T02:19:43;26.00;;;15.67;;
42886;SDS011;29032;56.028;92.904;2022-10-04T02:24:47;34.00;;;16.20;;
42886;SDS011;29032;56.028;92.904;2022-10-04T02:29:50;26.87;;;16.57;;
42886;SDS011;29032;56.028;92.904;2022-10-04T02:34:53;27.97;;;14.30;;
42886;SDS011;29032;56.028;92.904;2022-10-04T02:39:58;31.00;;;16.17;;
42886;SDS011;29032;56.028;92.904;2022-10-04T02:45:06;30.40;;;15.37;;
42886;SDS011;29032;56.028;92.904;2022-10-04T02:50:18;22.60;;;11.37;;
42886;SDS011;29032;56.028;92.904;2022-10-04T02:55:28;19.03;;;11.00;;
42886;SDS011;29032;56.028;92.904;2022-10-04T03:00:31;25.03;;;13.63;;
42886;SDS011;29032;56.028;92.904;2022-10-04T03:05:45;21.57;;;12.43;;
42886;SDS011;29032;56.028;92.904;2022-10-04T03:10:55;33.23;;;18.77;;
42886;SDS011;29032;56.028;92.904;2022-10-04T03:15:58;33.30;;;19.90;;
42886;SDS011;29032;56.028;92.904;2022-10-04T03:21:00;37.23;;;18.63;;
42886;SDS011;29032;56.028;92.904;2022-10-04T03:26:13;35.87;;;17.90;;
42886;SDS011;29032;56.028;92.904;2022-10-04T03:31:23;30.75;;;16.33;;
42886;SDS011;29032;56.028;92.904;2022-10-04T03:36:26;40.57;;;16.83;;
42886;SDS011;29032;56.028;92.904;2022-10-04T03:41:30;33.07;;;15.63;;
42886;SDS011;29032;56.028;92.904;2022-10-04T03:46:32;32.03;;;15.90;;
42886;SDS011;29032;56.028;92.904;2022-10-04T03:51:35;26.37;;;14.97;;
42886;SDS011;29032;56.028;92.904;2022-10-04T03:56:45;25.60;;;14.33;;
42886;SDS011;29032;56.028;92.904;2022-10-04T04:01:48;17.63;;;10.83;;
42886;SDS011;29032;56.028;92.904;2022-10-04T04:07:01;10.43;;;7.27;;
42886;SDS011;29032;56.028;92.904;2022-10-04T04:12:10;8.30;;;5.10;;
42886;SDS011;29032;56.028;92.904;2022-10-04T04:17:35;6.80;;;4.40;;
42886;SDS011;29032;56.028;92.904;2022-10-04T04:22:39;5.77;;;4.13;;
42886;SDS011;29032;56.028;92.904;2022-10-04T04:27:46;8.27;;;4.53;;
42886;SDS011;29032;56.028;92.904;2022-10-04T04:32:50;8.27;;;5.03;;
42886;SDS011;29032;56.028;92.904;2022-10-04T04:38:09;9.53;;;4.83;;
42886;SDS011;29032;56.028;92.904;2022-10-04T04:43:19;7.13;;;4.57;;
42886;SDS011;29032;56.028;92.904;2022-10-04T04:48:21;9.70;;;5.67;;
42886;SDS011;29032;56.028;92.904;2022-10-04T04:53:25;10.70;;;5.80;;
42886;SDS011;29032;56.028;92.904;2022-10-04T04:58:31;7.90;;;5.37;;
42886;SDS011;29032;56.028;92.904;2022-10-04T05:08:37;9.37;;;5.80;;
42886;SDS011;29032;56.028;92.904;2022-10-04T05:13:41;11.03;;;5.00;;
42886;SDS011;29032;56.028;92.904;2022-10-04T05:18:47;7.53;;;5.00;;
42886;SDS011;29032;56.028;92.904;2022-10-04T05:23:54;7.70;;;5.73;;
42886;SDS011;29032;56.028;92.904;2022-10-04T05:29:00;6.30;;;4.70;;
42886;SDS011;29032;56.028;92.904;2022-10-04T05:34:16;6.47;;;4.20;;
42886;SDS011;29032;56.028;92.904;2022-10-04T05:39:24;4.97;;;4.23;;
42886;SDS011;29032;56.028;92.904;2022-10-04T05:44:35;6.93;;;3.70;;
42886;SDS011;29032;56.028;92.904;2022-10-04T05:49:45;4.07;;;3.53;;
42886;SDS011;29032;56.028;92.904;2022-10-04T05:54:48;5.23;;;3.77;;
42886;SDS011;29032;56.028;92.904;2022-10-04T06:00:26;3.37;;;2.87;;
42886;SDS011;29032;56.028;92.904;2022-10-04T06:05:49;7.07;;;3.33;;
42886;SDS011;29032;56.028;92.904;2022-10-04T06:11:04;5.47;;;3.40;;
42886;SDS011;29032;56.028;92.904;2022-10-04T06:16:17;6.43;;;3.77;;
42886;SDS011;29032;56.028;92.904;2022-10-04T06:21:28;3.47;;;3.00;;
42886;SDS011;29032;56.028;92.904;2022-10-04T06:26:32;4.10;;;2.83;;
42886;SDS011;29032;56.028;92.904;2022-10-04T06:42:45;6.37;;;3.37;;
42886;SDS011;29032;56.028;92.904;2022-10-04T06:48:09;7.63;;;3.60;;
42886;SDS011;29032;56.028;92.904;2022-10-04T06:53:28;4.87;;;2.83;;
42886;SDS011;29032;56.028;92.904;2022-10-04T06:58:51;5.60;;;3.10;;
42886;SDS011;29032;56.028;92.904;2022-10-04T07:04:12;3.67;;;3.30;;
42886;SDS011;29032;56.028;92.904;2022-10-04T07:09:25;3.90;;;3.17;;
42886;SDS011;29032;56.028;92.904;2022-10-04T07:14:30;4.80;;;3.07;;
42886;SDS011;29032;56.028;92.904;2022-10-04T07:19:37;4.50;;;3.20;;
42886;SDS011;29032;56.028;92.904;2022-10-04T07:24:48;3.63;;;3.30;;
42886;SDS011;29032;56.028;92.904;2022-10-04T07:30:00;4.40;;;3.20;;
42886;SDS011;29032;56.028;92.904;2022-10-04T07:35:11;6.83;;;3.83;;
42886;SDS011;29032;56.028;92.904;2022-10-04T07:40:20;7.73;;;4.60;;
42886;SDS011;29032;56.028;92.904;2022-10-04T07:45:28;5.63;;;3.77;;
42886;SDS011;29032;56.028;92.904;2022-10-04T07:50:33;5.23;;;3.97;;
42886;SDS011;29032;56.028;92.904;2022-10-04T07:55:44;4.87;;;3.80;;
42886;SDS011;29032;56.028;92.904;2022-10-04T08:00:56;7.57;;;4.57;;
42886;SDS011;29032;56.028;92.904;2022-10-04T08:06:05;4.90;;;4.30;;
42886;SDS011;29032;56.028;92.904;2022-10-04T08:11:18;9.70;;;5.27;;
42886;SDS011;29032;56.028;92.904;2022-10-04T08:16:32;12.67;;;5.73;;
42886;SDS011;29032;56.028;92.904;2022-10-04T08:21:39;12.83;;;6.30;;
42886;SDS011;29032;56.028;92.904;2022-10-04T08:26:51;16.27;;;6.40;;
42886;SDS011;29032;56.028;92.904;2022-10-04T08:32:12;8.53;;;5.77;;
42886;SDS011;29032;56.028;92.904;2022-10-04T08:37:27;9.00;;;5.87;;
42886;SDS011;29032;56.028;92.904;2022-10-04T08:42:46;9.00;;;5.90;;
42886;SDS011;29032;56.028;92.904;2022-10-04T08:59:20;8.30;;;6.10;;
42886;SDS011;29032;56.028;92.904;2022-10-04T09:10:27;10.63;;;6.00;;
42886;SDS011;29032;56.028;92.904;2022-10-04T09:15:43;11.20;;;5.60;;
42886;SDS011;29032;56.028;92.904;2022-10-04T09:20:55;12.13;;;5.97;;
42886;SDS011;29032;56.028;92.904;2022-10-04T09:26:03;10.53;;;6.10;;
42886;SDS011;29032;56.028;92.904;2022-10-04T09:31:32;19.73;;;6.93;;
42886;SDS011;29032;56.028;92.904;2022-10-04T09:36:54;11.60;;;5.87;;
42886;SDS011;29032;56.028;92.904;2022-10-04T09:42:31;10.17;;;5.20;;
42886;SDS011;29032;56.028;92.904;2022-10-04T09:47:50;14.47;;;5.33;;
42886;SDS011;29032;56.028;92.904;2022-10-04T09:53:11;9.90;;;5.43;;
42886;SDS011;29032;56.028;92.904;2022-10-04T10:09:38;17.20;;;6.70;;
42886;SDS011;29032;56.028;92.904;2022-10-04T10:14:54;8.47;;;4.60;;
42886;SDS011;29032;56.028;92.904;2022-10-04T10:25:49;5.43;;;3.70;;
42886;SDS011;29032;56.028;92.904;2022-10-04T10:36:25;6.13;;;3.25;;
42886;SDS011;29032;56.028;92.904;2022-10-04T10:41:39;10.40;;;3.67;;
42886;SDS011;29032;56.028;92.904;2022-10-04T10:47:04;8.20;;;3.23;;
42886;SDS011;29032;56.028;92.904;2022-10-04T10:52:29;7.87;;;3.83;;
42886;SDS011;29032;56.028;92.904;2022-10-04T10:58:06;5.33;;;3.77;;
42886;SDS011;29032;56.028;92.904;2022-10-04T11:03:54;5.67;;;3.43;;
42886;SDS011;29032;56.028;92.904;2022-10-04T11:09:32;4.30;;;3.07;;
42886;SDS011;29032;56.028;92.904;2022-10-04T11:26:43;4.60;;;3.60;;
42886;SDS011;29032;56.028;92.904;2022-10-04T11:32:29;5.10;;;4.07;;
42886;SDS011;29032;56.028;92.904;2022-10-04T11:38:19;4.93;;;3.50;;
42886;SDS011;29032;56.028;92.904;2022-10-04T11:43:36;5.05;;;4.10;;
42886;SDS011;29032;56.028;92.904;2022-10-04T11:48:53;7.50;;;4.00;;
42886;SDS011;29032;56.028;92.904;2022-10-04T11:54:29;8.73;;;4.23;;
42886;SDS011;29032;56.028;92.904;2022-10-04T11:59:52;7.93;;;5.10;;
42886;SDS011;29032;56.028;92.904;2022-10-04T12:05:16;5.17;;;4.10;;
42886;SDS011;29032;56.028;92.904;2022-10-04T12:10:38;10.17;;;4.60;;
42886;SDS011;29032;56.028;92.904;2022-10-04T12:16:07;11.37;;;4.60;;
42886;SDS011;29032;56.028;92.904;2022-10-04T12:21:37;10.87;;;4.80;;
42886;SDS011;29032;56.028;92.904;2022-10-04T12:32:32;9.77;;;4.80;;
42886;SDS011;29032;56.028;92.904;2022-10-04T12:37:40;10.27;;;5.30;;
42886;SDS011;29032;56.028;92.904;2022-10-04T12:48:22;9.38;;;4.70;;
42886;SDS011;29032;56.028;92.904;2022-10-04T12:53:37;7.87;;;5.20;;
42886;SDS011;29032;56.028;92.904;2022-10-04T12:58:59;8.77;;;5.07;;
42886;SDS011;29032;56.028;92.904;2022-10-04T13:04:16;13.33;;;5.27;;
42886;SDS011;29032;56.028;92.904;2022-10-04T13:09:29;8.73;;;4.97;;
42886;SDS011;29032;56.028;92.904;2022-10-04T13:14:46;14.77;;;4.90;;
42886;SDS011;29032;56.028;92.904;2022-10-04T13:20:11;17.97;;;5.37;;
42886;SDS011;29032;56.028;92.904;2022-10-04T13:25:28;11.63;;;5.93;;
42886;SDS011;29032;56.028;92.904;2022-10-04T13:30:42;15.93;;;5.90;;
42886;SDS011;29032;56.028;92.904;2022-10-04T13:35:50;8.60;;;6.67;;
42886;SDS011;29032;56.028;92.904;2022-10-04T13:41:02;9.40;;;6.80;;
42886;SDS011;29032;56.028;92.904;2022-10-04T13:46:24;10.67;;;6.47;;
42886;SDS011;29032;56.028;92.904;2022-10-04T13:57:12;17.07;;;9.23;;
42886;SDS011;29032;56.028;92.904;2022-10-04T14:02:47;17.38;;;9.60;;
42886;SDS011;29032;56.028;92.904;2022-10-04T14:08:14;15.37;;;9.33;;
42886;SDS011;29032;56.028;92.904;2022-10-04T14:13:45;17.60;;;9.07;;
42886;SDS011;29032;56.028;92.904;2022-10-04T14:30:39;14.03;;;9.07;;
42886;SDS011;29032;56.028;92.904;2022-10-04T14:35:56;15.45;;;9.30;;
42886;SDS011;29032;56.028;92.904;2022-10-04T14:46:49;10.93;;;8.00;;
42886;SDS011;29032;56.028;92.904;2022-10-04T14:52:02;13.13;;;7.77;;
42886;SDS011;29032;56.028;92.904;2022-10-04T14:57:15;13.87;;;8.60;;
42886;SDS011;29032;56.028;92.904;2022-10-04T15:08:23;16.23;;;8.87;;
42886;SDS011;29032;56.028;92.904;2022-10-04T15:13:47;14.50;;;9.40;;
42886;SDS011;29032;56.028;92.904;2022-10-04T15:18:53;17.67;;;9.10;;
42886;SDS011;29032;56.028;92.904;2022-10-04T15:24:10;14.32;;;9.73;;
42886;SDS011;29032;56.028;92.904;2022-10-04T15:29:24;17.00;;;10.03;;
42886;SDS011;29032;56.028;92.904;2022-10-04T15:34:34;17.50;;;10.47;;
42886;SDS011;29032;56.028;92.904;2022-10-04T15:39:59;29.90;;;17.13;;
42886;SDS011;29032;56.028;92.904;2022-10-04T15:50:57;40.47;;;20.60;;
42886;SDS011;29032;56.028;92.904;2022-10-04T15:56:10;48.00;;;25.70;;
42886;SDS011;29032;56.028;92.904;2022-10-04T16:06:55;50.27;;;28.23;;
42886;SDS011;29032;56.028;92.904;2022-10-04T16:12:18;55.57;;;28.40;;
42886;SDS011;29032;56.028;92.904;2022-10-04T16:23:23;50.30;;;25.57;;
42886;SDS011;29032;56.028;92.904;2022-10-04T16:28:43;46.13;;;24.93;;
42886;SDS011;29032;56.028;92.904;2022-10-04T16:33:57;44.97;;;23.87;;
42886;SDS011;29032;56.028;92.904;2022-10-04T16:39:03;41.83;;;21.87;;
42886;SDS011;29032;56.028;92.904;2022-10-04T16:44:10;38.07;;;22.43;;
42886;SDS011;29032;56.028;92.904;2022-10-04T16:49:30;32.73;;;17.83;;
42886;SDS011;29032;56.028;92.904;2022-10-04T17:05:42;31.20;;;17.13;;
42886;SDS011;29032;56.028;92.904;2022-10-04T17:11:00;29.80;;;15.70;;
42886;SDS011;29032;56.028;92.904;2022-10-04T17:16:27;26.87;;;15.20;;
42886;SDS011;29032;56.028;92.904;2022-10-04T17:21:36;32.07;;;15.40;;
42886;SDS011;29032;56.028;92.904;2022-10-04T17:26:47;23.73;;;13.50;;
42886;SDS011;29032;56.028;92.904;2022-10-04T17:32:01;23.23;;;12.67;;
42886;SDS011;29032;56.028;92.904;2022-10-04T17:37:11;17.40;;;11.60;;
42886;SDS011;29032;56.028;92.904;2022-10-04T17:42:25;17.63;;;10.30;;
42886;SDS011;29032;56.028;92.904;2022-10-04T17:47:37;22.33;;;11.90;;
42886;SDS011;29032;56.028;92.904;2022-10-04T17:52:43;23.67;;;10.97;;
42886;SDS011;29032;56.028;92.904;2022-10-04T17:57:50;19.93;;;10.43;;
42886;SDS011;29032;56.028;92.904;2022-10-04T18:03:00;20.50;;;11.30;;
42886;SDS011;29032;56.028;92.904;2022-10-04T18:08:11;14.13;;;8.63;;
42886;SDS011;29032;56.028;92.904;2022-10-04T18:13:20;14.83;;;8.70;;
42886;SDS011;29032;56.028;92.904;2022-10-04T18:18:29;13.53;;;8.17;;
42886;SDS011;29032;56.028;92.904;2022-10-04T18:23:39;17.43;;;7.90;;
42886;SDS011;29032;56.028;92.904;2022-10-04T18:28:53;12.10;;;8.13;;
42886;SDS011;29032;56.028;92.904;2022-10-04T18:33:57;12.43;;;7.60;;
42886;SDS011;29032;56.028;92.904;2022-10-04T18:39:15;13.70;;;8.43;;
42886;SDS011;29032;56.028;92.904;2022-10-04T18:44:20;16.03;;;8.60;;
42886;SDS011;29032;56.028;92.904;2022-10-04T18:49:26;12.27;;;8.73;;
42886;SDS011;29032;56.028;92.904;2022-10-04T18:54:31;15.70;;;9.05;;
42886;SDS011;29032;56.028;92.904;2022-10-04T18:59:44;13.73;;;7.83;;
42886;SDS011;29032;56.028;92.904;2022-10-04T19:05:00;10.03;;;7.23;;
42886;SDS011;29032;56.028;92.904;2022-10-04T19:10:16;14.97;;;6.80;;
42886;SDS011;29032;56.028;92.904;2022-10-04T19:15:28;9.10;;;6.67;;
42886;SDS011;29032;56.028;92.904;2022-10-04T19:20:44;10.73;;;6.90;;
42886;SDS011;29032;56.028;92.904;2022-10-04T19:25:52;10.50;;;7.03;;
42886;SDS011;29032;56.028;92.904;2022-10-04T19:31:02;12.47;;;7.00;;
42886;SDS011;29032;56.028;92.904;2022-10-04T19:36:19;12.83;;;6.50;;
42886;SDS011;29032;56.028;92.904;2022-10-04T19:41:40;10.33;;;7.23;;
42886;SDS011;29032;56.028;92.904;2022-10-04T19:46:55;10.93;;;6.90;;
42886;SDS011;29032;56.028;92.904;2022-10-04T19:57:14;12.40;;;7.23;;
42886;SDS011;29032;56.028;92.904;2022-10-04T20:07:25;11.00;;;6.50;;
42886;SDS011;29032;56.028;92.904;2022-10-04T20:12:31;10.57;;;6.43;;
42886;SDS011;29032;56.028;92.904;2022-10-04T20:17:36;10.23;;;7.10;;
42886;SDS011;29032;56.028;92.904;2022-10-04T20:22:55;11.27;;;7.03;;
42886;SDS011;29032;56.028;92.904;2022-10-04T20:28:00;11.67;;;6.60;;
42886;SDS011;29032;56.028;92.904;2022-10-04T20:33:03;13.98;;;7.95;;
42886;SDS011;29032;56.028;92.904;2022-10-04T20:38:16;12.07;;;7.33;;
42886;SDS011;29032;56.028;92.904;2022-10-04T20:43:23;10.50;;;7.00;;
42886;SDS011;29032;56.028;92.904;2022-10-04T20:48:26;10.90;;;6.93;;
42886;SDS011;29032;56.028;92.904;2022-10-04T20:53:31;10.00;;;6.83;;
42886;SDS011;29032;56.028;92.904;2022-10-04T20:58:33;10.20;;;6.77;;
42886;SDS011;29032;56.028;92.904;2022-10-04T21:03:36;9.23;;;6.67;;
42886;SDS011;29032;56.028;92.904;2022-10-04T21:08:39;10.07;;;6.37;;
42886;SDS011;29032;56.028;92.904;2022-10-04T21:13:48;9.07;;;6.47;;
42886;SDS011;29032;56.028;92.904;2022-10-04T21:18:55;14.33;;;6.83;;
42886;SDS011;29032;56.028;92.904;2022-10-04T21:24:53;10.23;;;6.77;;
42886;SDS011;29032;56.028;92.904;2022-10-04T21:29:57;10.13;;;6.00;;
42886;SDS011;29032;56.028;92.904;2022-10-04T21:35:00;10.60;;;6.20;;
42886;SDS011;29032;56.028;92.904;2022-10-04T21:40:04;9.23;;;5.90;;
42886;SDS011;29032;56.028;92.904;2022-10-04T21:45:08;9.43;;;6.03;;
42886;SDS011;29032;56.028;92.904;2022-10-04T21:50:10;7.57;;;6.00;;
42886;SDS011;29032;56.028;92.904;2022-10-04T21:55:14;10.90;;;6.40;;
42886;SDS011;29032;56.028;92.904;2022-10-04T22:00:16;9.70;;;6.10;;
42886;SDS011;29032;56.028;92.904;2022-10-04T22:05:18;11.30;;;6.63;;
42886;SDS011;29032;56.028;92.904;2022-10-04T22:10:22;9.57;;;6.80;;
42886;SDS011;29032;56.028;92.904;2022-10-04T22:15:25;8.83;;;6.17;;
42886;SDS011;29032;56.028;92.904;2022-10-04T22:20:28;9.23;;;6.17;;
42886;SDS011;29032;56.028;92.904;2022-10-04T22:25:31;10.87;;;6.47;;
42886;SDS011;29032;56.028;92.904;2022-10-04T22:30:33;9.17;;;6.90;;
42886;SDS011;29032;56.028;92.904;2022-10-04T22:35:35;13.37;;;7.03;;
42886;SDS011;29032;56.028;92.904;2022-10-04T22:40:39;9.53;;;6.33;;
42886;SDS011;29032;56.028;92.904;2022-10-04T22:45:41;9.30;;;6.30;;
42886;SDS011;29032;56.028;92.904;2022-10-04T22:50:43;10.27;;;6.80;;
42886;SDS011;29032;56.028;92.904;2022-10-04T22:55:47;12.40;;;7.10;;
42886;SDS011;29032;56.028;92.904;2022-10-04T23:00:50;10.77;;;6.80;;
42886;SDS011;29032;56.028;92.904;2022-10-04T23:05:52;9.17;;;6.63;;
42886;SDS011;29032;56.028;92.904;2022-10-04T23:10:57;13.33;;;6.70;;
42886;SDS011;29032;56.028;92.904;2022-10-04T23:16:01;12.07;;;7.03;;
42886;SDS011;29032;56.028;92.904;2022-10-04T23:21:14;9.47;;;5.63;;
42886;SDS011;29032;56.028;92.904;2022-10-04T23:26:23;11.97;;;6.00;;
42886;SDS011;29032;56.028;92.904;2022-10-04T23:31:29;9.17;;;5.87;;
42886;SDS011;29032;56.028;92.904;2022-10-04T23:36:31;7.30;;;5.70;;
42886;SDS011;29032;56.028;92.904;2022-10-04T23:41:35;7.53;;;5.63;;
42886;SDS011;29032;56.028;92.904;2022-10-04T23:46:37;7.73;;;5.90;;
42886;SDS011;29032;56.028;92.904;2022-10-04T23:51:39;10.63;;;6.53;;
42886;SDS011;29032;56.028;92.904;2022-10-04T23:56:43;10.37;;;6.70;;
